sensor_id;sensor_type;location;lat;lon;timestamp;temperature;humidity
20524;DHT22;10420;48.542;12.270;2022-08-01T00:03:11;18.60;99.90
20524;DHT22;10420;48.542;12.270;2022-08-01T00:08:11;18.50;99.90
20524;DHT22;10420;48.542;12.270;2022-08-01T00:13:12;18.60;99.90
20524;DHT22;10420;48.542;12.270;2022-08-01T00:18:12;18.60;99.90
20524;DHT22;10420;48.542;12.270;2022-08-01T00:23:13;18.60;99.90
20524;DHT22;10420;48.542;12.270;2022-08-01T00:28:14;18.70;99.90
20524;DHT22;10420;48.542;12.270;2022-08-01T00:33:14;18.80;99.90
20524;DHT22;10420;48.542;12.270;2022-08-01T00:38:15;18.90;99.90
20524;DHT22;10420;48.542;12.270;2022-08-01T00:43:16;19.10;99.90
20524;DHT22;10420;48.542;12.270;2022-08-01T00:48:16;19.20;99.90
20524;DHT22;10420;48.542;12.270;2022-08-01T00:53:17;19.20;99.90
20524;DHT22;10420;48.542;12.270;2022-08-01T00:58:18;19.30;99.90
20524;DHT22;10420;48.542;12.270;2022-08-01T01:03:18;19.30;99.90
20524;DHT22;10420;48.542;12.270;2022-08-01T01:08:24;19.30;99.90
20524;DHT22;10420;48.542;12.270;2022-08-01T01:13:47;19.40;99.90
20524;DHT22;10420;48.542;12.270;2022-08-01T01:18:54;19.40;99.90
20524;DHT22;10420;48.542;12.270;2022-08-01T01:29:25;19.40;99.90
20524;DHT22;10420;48.542;12.270;2022-08-01T01:34:28;19.40;99.90
20524;DHT22;10420;48.542;12.270;2022-08-01T01:39:30;19.30;99.90
20524;DHT22;10420;48.542;12.270;2022-08-01T01:44:31;19.40;99.90
20524;DHT22;10420;48.542;12.270;2022-08-01T01:49:33;19.40;99.90
20524;DHT22;10420;48.542;12.270;2022-08-01T01:54:37;19.30;99.90
20524;DHT22;10420;48.542;12.270;2022-08-01T01:59:39;19.20;99.90
20524;DHT22;10420;48.542;12.270;2022-08-01T02:04:43;19.00;99.90
20524;DHT22;10420;48.542;12.270;2022-08-01T02:09:46;18.90;99.90
20524;DHT22;10420;48.542;12.270;2022-08-01T02:14:48;18.90;99.90
20524;DHT22;10420;48.542;12.270;2022-08-01T02:19:51;18.70;99.90
20524;DHT22;10420;48.542;12.270;2022-08-01T02:25:03;18.70;99.90
20524;DHT22;10420;48.542;12.270;2022-08-01T02:30:08;18.60;99.90
20524;DHT22;10420;48.542;12.270;2022-08-01T02:35:20;18.50;99.90
20524;DHT22;10420;48.542;12.270;2022-08-01T02:40:21;18.40;99.90
20524;DHT22;10420;48.542;12.270;2022-08-01T02:45:25;18.40;99.90
20524;DHT22;10420;48.542;12.270;2022-08-01T02:50:28;18.40;99.90
20524;DHT22;10420;48.542;12.270;2022-08-01T02:55:30;18.40;99.90
20524;DHT22;10420;48.542;12.270;2022-08-01T03:00:32;18.40;99.90
20524;DHT22;10420;48.542;12.270;2022-08-01T03:05:35;18.30;99.90
20524;DHT22;10420;48.542;12.270;2022-08-01T03:10:40;18.40;99.90
20524;DHT22;10420;48.542;12.270;2022-08-01T03:15:43;18.40;99.90
20524;DHT22;10420;48.542;12.270;2022-08-01T03:20:45;18.40;99.90
20524;DHT22;10420;48.542;12.270;2022-08-01T03:25:47;18.30;99.90
20524;DHT22;10420;48.542;12.270;2022-08-01T03:30:50;18.40;99.90
20524;DHT22;10420;48.542;12.270;2022-08-01T03:35:54;18.40;99.90
20524;DHT22;10420;48.542;12.270;2022-08-01T03:40:55;18.30;99.90
20524;DHT22;10420;48.542;12.270;2022-08-01T03:46:03;18.50;99.90
20524;DHT22;10420;48.542;12.270;2022-08-01T03:51:08;18.60;99.90
20524;DHT22;10420;48.542;12.270;2022-08-01T03:56:10;18.60;99.90
20524;DHT22;10420;48.542;12.270;2022-08-01T04:01:13;18.60;99.90
20524;DHT22;10420;48.542;12.270;2022-08-01T04:06:14;18.70;99.90
20524;DHT22;10420;48.542;12.270;2022-08-01T04:11:15;18.90;99.90
20524;DHT22;10420;48.542;12.270;2022-08-01T04:16:16;18.80;99.90
20524;DHT22;10420;48.542;12.270;2022-08-01T04:21:19;18.80;99.90
20524;DHT22;10420;48.542;12.270;2022-08-01T04:26:21;18.70;99.90
20524;DHT22;10420;48.542;12.270;2022-08-01T04:31:24;18.50;99.90
20524;DHT22;10420;48.542;12.270;2022-08-01T04:36:27;18.70;99.90
20524;DHT22;10420;48.542;12.270;2022-08-01T04:41:30;18.90;99.90
20524;DHT22;10420;48.542;12.270;2022-08-01T04:46:32;18.90;99.90
20524;DHT22;10420;48.542;12.270;2022-08-01T04:51:33;19.20;99.90
20524;DHT22;10420;48.542;12.270;2022-08-01T04:56:34;19.30;99.90
20524;DHT22;10420;48.542;12.270;2022-08-01T05:01:35;19.30;99.90
20524;DHT22;10420;48.542;12.270;2022-08-01T05:06:35;19.60;99.90
20524;DHT22;10420;48.542;12.270;2022-08-01T05:11:38;19.80;99.90
20524;DHT22;10420;48.542;12.270;2022-08-01T05:16:39;21.00;99.90
20524;DHT22;10420;48.542;12.270;2022-08-01T05:21:40;21.00;99.90
20524;DHT22;10420;48.542;12.270;2022-08-01T05:26:41;21.20;99.90
20524;DHT22;10420;48.542;12.270;2022-08-01T05:31:41;20.80;99.90
20524;DHT22;10420;48.542;12.270;2022-08-01T05:36:42;20.60;99.90
20524;DHT22;10420;48.542;12.270;2022-08-01T05:41:43;20.50;99.90
20524;DHT22;10420;48.542;12.270;2022-08-01T05:46:44;20.50;99.90
20524;DHT22;10420;48.542;12.270;2022-08-01T05:51:44;20.50;99.90
20524;DHT22;10420;48.542;12.270;2022-08-01T05:56:45;20.60;99.90
20524;DHT22;10420;48.542;12.270;2022-08-01T06:01:46;20.70;99.90
20524;DHT22;10420;48.542;12.270;2022-08-01T06:06:46;20.70;99.90
20524;DHT22;10420;48.542;12.270;2022-08-01T06:11:47;20.60;99.90
20524;DHT22;10420;48.542;12.270;2022-08-01T06:16:48;20.70;99.90
20524;DHT22;10420;48.542;12.270;2022-08-01T06:21:49;20.70;99.90
20524;DHT22;10420;48.542;12.270;2022-08-01T06:26:49;21.00;99.90
20524;DHT22;10420;48.542;12.270;2022-08-01T06:31:50;21.60;99.90
20524;DHT22;10420;48.542;12.270;2022-08-01T06:36:50;22.70;99.90
20524;DHT22;10420;48.542;12.270;2022-08-01T06:41:51;22.90;99.90
20524;DHT22;10420;48.542;12.270;2022-08-01T06:46:52;23.60;99.90
20524;DHT22;10420;48.542;12.270;2022-08-01T06:51:52;23.70;99.90
20524;DHT22;10420;48.542;12.270;2022-08-01T06:56:53;23.70;99.90
20524;DHT22;10420;48.542;12.270;2022-08-01T07:01:54;24.20;99.90
20524;DHT22;10420;48.542;12.270;2022-08-01T07:06:54;24.00;99.90
20524;DHT22;10420;48.542;12.270;2022-08-01T07:11:55;24.30;99.90
20524;DHT22;10420;48.542;12.270;2022-08-01T07:16:56;24.70;99.90
20524;DHT22;10420;48.542;12.270;2022-08-01T07:21:57;25.30;99.90
20524;DHT22;10420;48.542;12.270;2022-08-01T07:26:57;25.90;99.90
20524;DHT22;10420;48.542;12.270;2022-08-01T07:31:58;26.30;99.90
20524;DHT22;10420;48.542;12.270;2022-08-01T07:37:00;26.10;99.90
20524;DHT22;10420;48.542;12.270;2022-08-01T07:42:01;26.80;99.90
20524;DHT22;10420;48.542;12.270;2022-08-01T07:47:01;26.70;99.90
20524;DHT22;10420;48.542;12.270;2022-08-01T07:52:03;27.20;99.90
20524;DHT22;10420;48.542;12.270;2022-08-01T07:57:03;27.30;99.90
20524;DHT22;10420;48.542;12.270;2022-08-01T08:02:04;27.40;99.90
20524;DHT22;10420;48.542;12.270;2022-08-01T08:07:05;27.60;99.90
20524;DHT22;10420;48.542;12.270;2022-08-01T08:12:06;27.60;99.90
20524;DHT22;10420;48.542;12.270;2022-08-01T08:17:07;28.00;99.90
20524;DHT22;10420;48.542;12.270;2022-08-01T08:22:08;28.20;99.90
20524;DHT22;10420;48.542;12.270;2022-08-01T08:27:09;28.20;99.90
20524;DHT22;10420;48.542;12.270;2022-08-01T08:32:09;28.80;99.90
20524;DHT22;10420;48.542;12.270;2022-08-01T08:37:10;28.90;99.90
20524;DHT22;10420;48.542;12.270;2022-08-01T08:42:12;28.90;99.90
20524;DHT22;10420;48.542;12.270;2022-08-01T08:47:13;29.80;99.90
20524;DHT22;10420;48.542;12.270;2022-08-01T08:52:14;29.80;99.90
20524;DHT22;10420;48.542;12.270;2022-08-01T08:57:16;29.10;99.90
20524;DHT22;10420;48.542;12.270;2022-08-01T09:02:18;29.00;99.90
20524;DHT22;10420;48.542;12.270;2022-08-01T09:07:19;29.50;99.90
20524;DHT22;10420;48.542;12.270;2022-08-01T09:12:20;29.50;99.90
20524;DHT22;10420;48.542;12.270;2022-08-01T09:17:21;28.20;99.90
20524;DHT22;10420;48.542;12.270;2022-08-01T09:22:23;26.80;99.90
20524;DHT22;10420;48.542;12.270;2022-08-01T09:27:24;27.90;99.90
20524;DHT22;10420;48.542;12.270;2022-08-01T09:32:27;27.20;99.90
20524;DHT22;10420;48.542;12.270;2022-08-01T09:37:31;26.50;99.90
20524;DHT22;10420;48.542;12.270;2022-08-01T09:42:32;26.50;99.90
20524;DHT22;10420;48.542;12.270;2022-08-01T09:47:39;26.20;99.90
20524;DHT22;10420;48.542;12.270;2022-08-01T09:52:39;27.50;99.90
20524;DHT22;10420;48.542;12.270;2022-08-01T09:57:54;26.90;99.90
20524;DHT22;10420;48.542;12.270;2022-08-01T10:02:56;28.10;99.90
20524;DHT22;10420;48.542;12.270;2022-08-01T10:08:02;27.10;99.90
20524;DHT22;10420;48.542;12.270;2022-08-01T10:13:04;29.00;99.90
20524;DHT22;10420;48.542;12.270;2022-08-01T10:18:07;27.40;99.90
20524;DHT22;10420;48.542;12.270;2022-08-01T10:23:09;29.50;99.90
20524;DHT22;10420;48.542;12.270;2022-08-01T10:28:15;28.00;99.90
20524;DHT22;10420;48.542;12.270;2022-08-01T10:33:23;28.10;99.90
20524;DHT22;10420;48.542;12.270;2022-08-01T10:38:23;28.70;99.90
20524;DHT22;10420;48.542;12.270;2022-08-01T10:43:24;28.00;99.90
20524;DHT22;10420;48.542;12.270;2022-08-01T10:53:46;28.30;99.90
20524;DHT22;10420;48.542;12.270;2022-08-01T10:58:48;28.40;99.90
20524;DHT22;10420;48.542;12.270;2022-08-01T11:09:05;27.00;99.90
20524;DHT22;10420;48.542;12.270;2022-08-01T11:14:06;27.50;99.90
20524;DHT22;10420;48.542;12.270;2022-08-01T11:19:12;28.90;99.90
20524;DHT22;10420;48.542;12.270;2022-08-01T11:24:12;29.60;99.90
20524;DHT22;10420;48.542;12.270;2022-08-01T11:29:33;30.40;99.90
20524;DHT22;10420;48.542;12.270;2022-08-01T11:34:54;29.40;99.90
20524;DHT22;10420;48.542;12.270;2022-08-01T11:40:18;27.90;99.90
20524;DHT22;10420;48.542;12.270;2022-08-01T11:45:19;27.10;99.90
20524;DHT22;10420;48.542;12.270;2022-08-01T11:55:31;27.00;99.90
20524;DHT22;10420;48.542;12.270;2022-08-01T12:00:33;26.80;99.90
20524;DHT22;10420;48.542;12.270;2022-08-01T12:05:35;28.30;99.90
20524;DHT22;10420;48.542;12.270;2022-08-01T12:10:37;29.20;99.90
20524;DHT22;10420;48.542;12.270;2022-08-01T12:15:38;28.10;99.90
20524;DHT22;10420;48.542;12.270;2022-08-01T12:20:41;29.20;99.90
20524;DHT22;10420;48.542;12.270;2022-08-01T12:25:42;29.40;99.90
20524;DHT22;10420;48.542;12.270;2022-08-01T12:30:48;28.60;99.90
20524;DHT22;10420;48.542;12.270;2022-08-01T12:35:49;27.70;99.90
20524;DHT22;10420;48.542;12.270;2022-08-01T12:40:50;28.60;99.90
20524;DHT22;10420;48.542;12.270;2022-08-01T12:45:51;28.30;99.90
20524;DHT22;10420;48.542;12.270;2022-08-01T12:50:53;27.60;99.90
20524;DHT22;10420;48.542;12.270;2022-08-01T12:55:55;27.50;99.90
20524;DHT22;10420;48.542;12.270;2022-08-01T13:01:10;27.40;99.90
20524;DHT22;10420;48.542;12.270;2022-08-01T13:06:13;27.50;99.90
20524;DHT22;10420;48.542;12.270;2022-08-01T13:11:15;27.20;99.90
20524;DHT22;10420;48.542;12.270;2022-08-01T13:16:24;27.30;99.90
20524;DHT22;10420;48.542;12.270;2022-08-01T13:21:30;27.40;99.90
20524;DHT22;10420;48.542;12.270;2022-08-01T13:27:00;27.30;99.90
20524;DHT22;10420;48.542;12.270;2022-08-01T13:32:16;27.90;99.90
20524;DHT22;10420;48.542;12.270;2022-08-01T13:37:18;27.60;99.90
20524;DHT22;10420;48.542;12.270;2022-08-01T13:42:18;27.30;99.90
20524;DHT22;10420;48.542;12.270;2022-08-01T13:47:19;27.50;99.90
20524;DHT22;10420;48.542;12.270;2022-08-01T13:52:19;28.10;99.90
20524;DHT22;10420;48.542;12.270;2022-08-01T13:57:20;27.50;99.90
20524;DHT22;10420;48.542;12.270;2022-08-01T14:02:22;27.30;99.90
20524;DHT22;10420;48.542;12.270;2022-08-01T14:07:22;27.10;99.90
20524;DHT22;10420;48.542;12.270;2022-08-01T14:12:23;26.80;99.90
20524;DHT22;10420;48.542;12.270;2022-08-01T14:17:24;26.60;99.90
20524;DHT22;10420;48.542;12.270;2022-08-01T14:22:24;26.70;99.90
20524;DHT22;10420;48.542;12.270;2022-08-01T14:27:25;27.40;99.90
20524;DHT22;10420;48.542;12.270;2022-08-01T14:32:26;27.20;99.90
20524;DHT22;10420;48.542;12.270;2022-08-01T14:37:26;27.10;99.90
20524;DHT22;10420;48.542;12.270;2022-08-01T14:42:28;27.10;99.90
20524;DHT22;10420;48.542;12.270;2022-08-01T14:47:29;27.50;99.90
20524;DHT22;10420;48.542;12.270;2022-08-01T14:52:30;27.40;99.90
20524;DHT22;10420;48.542;12.270;2022-08-01T14:57:30;27.20;99.90
20524;DHT22;10420;48.542;12.270;2022-08-01T15:02:31;26.90;99.90
20524;DHT22;10420;48.542;12.270;2022-08-01T15:07:32;27.00;99.90
20524;DHT22;10420;48.542;12.270;2022-08-01T15:12:33;27.00;99.90
20524;DHT22;10420;48.542;12.270;2022-08-01T15:17:34;27.10;99.90
20524;DHT22;10420;48.542;12.270;2022-08-01T15:22:35;27.30;99.90
20524;DHT22;10420;48.542;12.270;2022-08-01T15:27:36;27.20;99.90
20524;DHT22;10420;48.542;12.270;2022-08-01T15:32:37;27.30;99.90
20524;DHT22;10420;48.542;12.270;2022-08-01T15:37:39;26.90;99.90
20524;DHT22;10420;48.542;12.270;2022-08-01T15:42:40;26.70;99.90
20524;DHT22;10420;48.542;12.270;2022-08-01T15:47:40;27.00;99.90
20524;DHT22;10420;48.542;12.270;2022-08-01T15:52:41;27.10;99.90
20524;DHT22;10420;48.542;12.270;2022-08-01T15:57:41;27.00;99.90
20524;DHT22;10420;48.542;12.270;2022-08-01T16:02:42;26.70;99.90
20524;DHT22;10420;48.542;12.270;2022-08-01T16:07:43;26.40;99.90
20524;DHT22;10420;48.542;12.270;2022-08-01T16:12:43;26.10;99.90
20524;DHT22;10420;48.542;12.270;2022-08-01T16:17:44;25.90;99.90
20524;DHT22;10420;48.542;12.270;2022-08-01T16:22:45;25.70;99.90
20524;DHT22;10420;48.542;12.270;2022-08-01T16:27:46;25.50;99.90
20524;DHT22;10420;48.542;12.270;2022-08-01T16:32:46;25.50;99.90
20524;DHT22;10420;48.542;12.270;2022-08-01T16:37:47;25.40;99.90
20524;DHT22;10420;48.542;12.270;2022-08-01T16:42:48;24.80;99.90
20524;DHT22;10420;48.542;12.270;2022-08-01T16:47:49;23.80;99.90
20524;DHT22;10420;48.542;12.270;2022-08-01T16:52:49;23.00;99.90
20524;DHT22;10420;48.542;12.270;2022-08-01T16:57:50;22.00;99.90
20524;DHT22;10420;48.542;12.270;2022-08-01T17:02:51;20.70;99.90
20524;DHT22;10420;48.542;12.270;2022-08-01T17:07:52;20.50;99.90
20524;DHT22;10420;48.542;12.270;2022-08-01T17:12:52;19.80;99.90
20524;DHT22;10420;48.542;12.270;2022-08-01T17:17:53;19.70;99.90
20524;DHT22;10420;48.542;12.270;2022-08-01T17:22:55;19.70;99.90
20524;DHT22;10420;48.542;12.270;2022-08-01T17:27:55;19.30;99.90
20524;DHT22;10420;48.542;12.270;2022-08-01T17:32:56;18.90;99.90
20524;DHT22;10420;48.542;12.270;2022-08-01T17:37:58;19.00;99.90
20524;DHT22;10420;48.542;12.270;2022-08-01T17:42:59;19.10;99.90
20524;DHT22;10420;48.542;12.270;2022-08-01T17:47:59;19.40;99.90
20524;DHT22;10420;48.542;12.270;2022-08-01T17:53:00;19.40;99.90
20524;DHT22;10420;48.542;12.270;2022-08-01T17:58:01;19.40;99.90
20524;DHT22;10420;48.542;12.270;2022-08-01T18:03:04;19.40;99.90
20524;DHT22;10420;48.542;12.270;2022-08-01T18:08:05;19.60;99.90
20524;DHT22;10420;48.542;12.270;2022-08-01T18:13:07;19.60;99.90
20524;DHT22;10420;48.542;12.270;2022-08-01T18:18:08;19.30;99.90
20524;DHT22;10420;48.542;12.270;2022-08-01T18:23:11;19.50;99.90
20524;DHT22;10420;48.542;12.270;2022-08-01T18:28:12;19.50;99.90
20524;DHT22;10420;48.542;12.270;2022-08-01T18:33:13;19.30;99.90
20524;DHT22;10420;48.542;12.270;2022-08-01T18:38:13;19.40;99.90
20524;DHT22;10420;48.542;12.270;2022-08-01T18:43:14;19.30;99.90
20524;DHT22;10420;48.542;12.270;2022-08-01T18:48:15;19.30;99.90
20524;DHT22;10420;48.542;12.270;2022-08-01T18:53:16;19.30;99.90
20524;DHT22;10420;48.542;12.270;2022-08-01T18:58:18;19.10;99.90
20524;DHT22;10420;48.542;12.270;2022-08-01T19:03:18;18.90;99.90
20524;DHT22;10420;48.542;12.270;2022-08-01T19:08:20;18.90;99.90
20524;DHT22;10420;48.542;12.270;2022-08-01T19:13:20;18.60;99.90
20524;DHT22;10420;48.542;12.270;2022-08-01T19:18:21;18.30;99.90
20524;DHT22;10420;48.542;12.270;2022-08-01T19:23:22;18.30;99.90
20524;DHT22;10420;48.542;12.270;2022-08-01T19:28:46;18.30;99.90
20524;DHT22;10420;48.542;12.270;2022-08-01T19:33:51;18.40;99.90
20524;DHT22;10420;48.542;12.270;2022-08-01T19:38:52;18.30;99.90
20524;DHT22;10420;48.542;12.270;2022-08-01T19:43:55;18.20;99.90
20524;DHT22;10420;48.542;12.270;2022-08-01T19:48:57;18.10;99.90
20524;DHT22;10420;48.542;12.270;2022-08-01T19:54:02;18.20;99.90
20524;DHT22;10420;48.542;12.270;2022-08-01T19:59:03;18.10;99.90
20524;DHT22;10420;48.542;12.270;2022-08-01T20:04:07;18.00;99.90
20524;DHT22;10420;48.542;12.270;2022-08-01T20:09:08;17.80;99.90
20524;DHT22;10420;48.542;12.270;2022-08-01T20:14:12;17.90;99.90
20524;DHT22;10420;48.542;12.270;2022-08-01T20:19:15;17.90;99.90
20524;DHT22;10420;48.542;12.270;2022-08-01T20:24:17;18.00;99.90
20524;DHT22;10420;48.542;12.270;2022-08-01T20:29:18;18.10;99.90
20524;DHT22;10420;48.542;12.270;2022-08-01T20:34:23;18.10;99.90
20524;DHT22;10420;48.542;12.270;2022-08-01T20:39:24;17.90;99.90
20524;DHT22;10420;48.542;12.270;2022-08-01T20:44:24;18.00;99.90
20524;DHT22;10420;48.542;12.270;2022-08-01T20:49:26;18.00;99.90
20524;DHT22;10420;48.542;12.270;2022-08-01T20:54:27;18.00;99.90
20524;DHT22;10420;48.542;12.270;2022-08-01T20:59:36;17.90;99.90
20524;DHT22;10420;48.542;12.270;2022-08-01T21:04:57;18.10;99.90
20524;DHT22;10420;48.542;12.270;2022-08-01T21:10:06;18.00;99.90
20524;DHT22;10420;48.542;12.270;2022-08-01T21:20:41;18.20;99.90
20524;DHT22;10420;48.542;12.270;2022-08-01T21:25:42;18.00;99.90
20524;DHT22;10420;48.542;12.270;2022-08-01T21:30:43;18.10;99.90
20524;DHT22;10420;48.542;12.270;2022-08-01T21:35:44;18.00;99.90
20524;DHT22;10420;48.542;12.270;2022-08-01T21:40:46;17.90;99.90
20524;DHT22;10420;48.542;12.270;2022-08-01T21:45:49;17.90;99.90
20524;DHT22;10420;48.542;12.270;2022-08-01T21:56:14;18.10;99.90
20524;DHT22;10420;48.542;12.270;2022-08-01T22:01:33;18.10;99.90
20524;DHT22;10420;48.542;12.270;2022-08-01T22:06:37;18.10;99.90
20524;DHT22;10420;48.542;12.270;2022-08-01T22:11:42;18.00;99.90
20524;DHT22;10420;48.542;12.270;2022-08-01T22:16:45;18.20;99.90
20524;DHT22;10420;48.542;12.270;2022-08-01T22:21:46;18.10;99.90
20524;DHT22;10420;48.542;12.270;2022-08-01T22:26:47;18.10;99.90
20524;DHT22;10420;48.542;12.270;2022-08-01T22:31:51;18.10;99.90
20524;DHT22;10420;48.542;12.270;2022-08-01T22:36:56;17.90;99.90
20524;DHT22;10420;48.542;12.270;2022-08-01T22:41:59;18.10;99.90
20524;DHT22;10420;48.542;12.270;2022-08-01T22:47:05;18.40;99.90
20524;DHT22;10420;48.542;12.270;2022-08-01T22:52:17;18.40;99.90
20524;DHT22;10420;48.542;12.270;2022-08-01T22:57:28;18.50;99.90
20524;DHT22;10420;48.542;12.270;2022-08-01T23:02:37;18.50;99.90
20524;DHT22;10420;48.542;12.270;2022-08-01T23:07:44;18.40;99.90
20524;DHT22;10420;48.542;12.270;2022-08-01T23:12:45;18.40;99.90
20524;DHT22;10420;48.542;12.270;2022-08-01T23:17:48;18.40;99.90
20524;DHT22;10420;48.542;12.270;2022-08-01T23:22:50;18.40;99.90
20524;DHT22;10420;48.542;12.270;2022-08-01T23:27:51;18.40;99.90
20524;DHT22;10420;48.542;12.270;2022-08-01T23:32:53;18.10;99.90
20524;DHT22;10420;48.542;12.270;2022-08-01T23:37:54;18.10;99.90
20524;DHT22;10420;48.542;12.270;2022-08-01T23:42:58;18.00;99.90
20524;DHT22;10420;48.542;12.270;2022-08-01T23:47:59;18.00;99.90
20524;DHT22;10420;48.542;12.270;2022-08-01T23:53:00;18.10;99.90
20524;DHT22;10420;48.542;12.270;2022-08-01T23:58:01;18.10;99.90
